Time;durP1;ratioP1;P1;durP2;ratioP2;P2;SDS_P1;SDS_P2;PMS_P1;PMS_P2;Temp;Humidity;BMP_temperature;BMP_pressure;BME280_temperature;BME280_humidity;BME280_pressure;Samples;Min_cycle;Max_cycle;Signal;HPM_P1;HPM_P2
2021/09/05 00:01:40;;;;;;;9.43;8.52;;;15.90;87.10;;;;;;5061301;28;20268;-78
2021/09/05 00:04:10;;;;;;;9.65;8.15;;;15.80;86.80;;;;;;5063780;28;20222;-79
2021/09/05 00:06:38;;;;;;;9.93;7.67;;;15.80;86.50;;;;;;5060888;28;20206;-78
2021/09/05 00:09:05;;;;;;;9.50;8.00;;;15.80;86.50;;;;;;5056738;28;20453;-77
2021/09/05 00:11:32;;;;;;;8.75;7.85;;;15.80;86.70;;;;;;5053282;28;20492;-78
2021/09/05 00:14:00;;;;;;;9.93;8.43;;;15.80;87.00;;;;;;5052296;28;20298;-78
2021/09/05 00:16:26;;;;;;;10.10;7.90;;;15.70;87.90;;;;;;5052983;28;20217;-79
2021/09/05 00:18:53;;;;;;;10.73;8.45;;;15.60;89.60;;;;;;5052765;28;20492;-77
2021/09/05 00:21:20;;;;;;;9.27;8.35;;;15.60;89.80;;;;;;5053606;28;20234;-79
2021/09/05 00:23:48;;;;;;;8.90;8.00;;;15.60;89.80;;;;;;5053907;28;20222;-78
2021/09/05 00:26:15;;;;;;;11.13;8.48;;;15.50;89.70;;;;;;5054053;28;20221;-78
2021/09/05 00:28:42;;;;;;;9.55;8.45;;;15.50;90.10;;;;;;5053703;28;20610;-78
2021/09/05 00:31:09;;;;;;;9.80;8.60;;;15.50;90.20;;;;;;5056390;28;20210;-77
2021/09/05 00:33:36;;;;;;;10.57;8.40;;;15.50;90.00;;;;;;5053400;28;20226;-78
2021/09/05 00:36:04;;;;;;;10.30;8.30;;;15.60;89.80;;;;;;5052788;28;20210;-78
2021/09/05 00:38:31;;;;;;;10.18;9.18;;;15.60;89.80;;;;;;5052146;28;20563;-78
2021/09/05 00:40:59;;;;;;;10.25;8.32;;;15.60;89.80;;;;;;5052459;28;20237;-77
2021/09/05 00:43:26;;;;;;;9.93;8.80;;;15.60;89.80;;;;;;5053425;28;20312;-77
2021/09/05 00:45:53;;;;;;;9.40;8.50;;;15.60;89.80;;;;;;5052687;28;20497;-77
2021/09/05 00:48:19;;;;;;;10.55;8.23;;;15.60;89.80;;;;;;5052372;28;20203;-77
2021/09/05 00:50:46;;;;;;;8.60;7.70;;;15.50;89.70;;;;;;5052497;28;20215;-78
2021/09/05 00:53:13;;;;;;;8.90;8.00;;;15.50;89.80;;;;;;5052039;28;20520;-77
2021/09/05 00:55:40;;;;;;;10.50;8.93;;;15.50;89.70;;;;;;5053641;28;20969;-77
2021/09/05 00:58:09;;;;;;;9.70;8.68;;;15.40;90.40;;;;;;5057862;28;20241;-78
2021/09/05 01:00:36;;;;;;;10.95;8.25;;;15.40;90.70;;;;;;5056048;28;20205;-78
2021/09/05 01:03:04;;;;;;;8.77;7.88;;;15.40;91.10;;;;;;5056512;28;20241;-77
2021/09/05 01:05:31;;;;;;;10.38;8.27;;;15.40;91.00;;;;;;5055982;28;20318;-78
2021/09/05 01:07:58;;;;;;;9.05;8.15;;;15.30;91.40;;;;;;5055552;28;20661;-78
2021/09/05 01:10:25;;;;;;;11.10;9.63;;;15.30;91.60;;;;;;5055369;28;20209;-78
2021/09/05 01:12:52;;;;;;;14.27;10.00;;;15.30;92.20;;;;;;5055663;28;20717;-77
2021/09/05 01:15:21;;;;;;;12.50;10.00;;;15.20;93.40;;;;;;5055856;28;20226;-78
2021/09/05 01:17:48;;;;;;;13.25;10.73;;;15.20;93.80;;;;;;5056581;28;20210;-77
2021/09/05 01:20:15;;;;;;;13.35;9.95;;;15.10;94.60;;;;;;5055394;28;20202;-77
2021/09/05 01:22:42;;;;;;;11.45;10.20;;;15.00;95.20;;;;;;5055973;28;20680;-78
2021/09/05 01:25:09;;;;;;;11.95;10.07;;;14.90;96.20;;;;;;5059243;28;20286;-78
2021/09/05 01:27:38;;;;;;;11.57;10.10;;;14.80;97.10;;;;;;5058131;28;20211;-78
2021/09/05 01:30:06;;;;;;;12.90;10.43;;;14.80;98.20;;;;;;5055861;28;20726;-78
2021/09/05 01:32:32;;;;;;;11.43;10.20;;;14.80;98.70;;;;;;5055701;28;20321;-78
2021/09/05 01:35:01;;;;;;;12.32;10.32;;;14.80;99.70;;;;;;5055818;28;20199;-79
2021/09/05 01:37:28;;;;;;;12.57;10.63;;;14.80;99.90;;;;;;5057155;28;20257;-79
2021/09/05 01:39:57;;;;;;;13.52;10.73;;;14.80;99.90;;;;;;5057458;28;20572;-79
2021/09/05 01:42:24;;;;;;;15.82;11.57;;;14.70;99.90;;;;;;5057306;28;20744;-79
2021/09/05 01:44:52;;;;;;;13.80;11.07;;;14.70;99.90;;;;;;5056764;28;20227;-79
2021/09/05 01:47:19;;;;;;;11.70;10.43;;;14.70;99.90;;;;;;5057346;28;20241;-79
2021/09/05 01:49:46;;;;;;;12.80;11.05;;;14.70;99.90;;;;;;5056300;28;20734;-79
2021/09/05 01:52:13;;;;;;;15.85;10.32;;;14.60;99.90;;;;;;5055177;28;20282;-79
2021/09/05 01:54:39;;;;;;;12.57;10.80;;;14.60;99.90;;;;;;5055119;28;20248;-79
2021/09/05 01:57:06;;;;;;;11.20;10.00;;;14.60;99.90;;;;;;5055429;28;20210;-78
2021/09/05 01:59:33;;;;;;;13.32;10.52;;;14.60;99.90;;;;;;5055783;28;20741;-78
2021/09/05 02:02:02;;;;;;;11.02;9.93;;;14.60;99.90;;;;;;5060797;28;20270;-78
2021/09/05 02:04:29;;;;;;;13.70;10.20;;;14.60;99.90;;;;;;5055462;28;20321;-78
2021/09/05 02:06:55;;;;;;;12.23;10.70;;;14.50;99.90;;;;;;5054492;28;20205;-78
2021/09/05 02:09:22;;;;;;;11.60;10.40;;;14.50;99.90;;;;;;5054608;28;20256;-78
2021/09/05 02:11:51;;;;;;;14.45;11.40;;;14.50;99.90;;;;;;5055074;28;20233;-78
2021/09/05 02:14:18;;;;;;;15.48;10.73;;;14.50;99.90;;;;;;5055009;28;20231;-78
2021/09/05 02:16:45;;;;;;;13.15;10.73;;;14.50;99.90;;;;;;5054733;28;20213;-78
2021/09/05 02:19:13;;;;;;;12.63;10.10;;;14.50;99.90;;;;;;5054316;28;20301;-78
2021/09/05 02:21:40;;;;;;;12.25;10.77;;;14.50;99.90;;;;;;5054419;28;20257;-78
2021/09/05 02:24:07;;;;;;;11.88;10.30;;;14.50;99.90;;;;;;5054231;28;20261;-78
2021/09/05 02:26:34;;;;;;;12.07;10.88;;;14.50;99.90;;;;;;5054182;28;20210;-78
2021/09/05 02:29:01;;;;;;;12.00;10.80;;;14.50;99.90;;;;;;5054336;28;20217;-78
2021/09/05 02:31:28;;;;;;;11.50;10.40;;;14.50;99.90;;;;;;5054960;28;20281;-77
2021/09/05 02:33:54;;;;;;;12.13;10.70;;;14.50;99.90;;;;;;5054523;28;20304;-78
2021/09/05 02:36:25;;;;;;;14.68;11.00;;;14.50;99.90;;;;;;5055507;28;20293;-78
2021/09/05 02:38:51;;;;;;;12.30;10.98;;;14.50;99.90;;;;;;5055909;28;20217;-78
2021/09/05 02:41:18;;;;;;;13.05;11.50;;;14.40;99.90;;;;;;5055738;28;20297;-78
2021/09/05 02:43:45;;;;;;;12.52;10.68;;;14.40;99.90;;;;;;5055490;28;20214;-78
2021/09/05 02:46:12;;;;;;;11.93;10.68;;;14.40;99.90;;;;;;5055475;28;20229;-78
2021/09/05 02:48:39;;;;;;;13.68;11.15;;;14.40;99.90;;;;;;5057228;28;20206;-78
2021/09/05 02:51:06;;;;;;;11.43;10.35;;;14.30;99.90;;;;;;5055379;28;20233;-78
2021/09/05 02:53:34;;;;;;;10.45;9.43;;;14.40;99.90;;;;;;5054113;28;20276;-78
2021/09/05 02:56:01;;;;;;;11.40;10.20;;;14.30;99.90;;;;;;5053994;28;20221;-78
2021/09/05 02:58:28;;;;;;;10.68;9.55;;;14.30;99.90;;;;;;5054074;28;20659;-78
2021/09/05 03:00:55;;;;;;;10.63;9.60;;;14.30;99.90;;;;;;5053981;28;20207;-79
2021/09/05 03:03:22;;;;;;;12.30;10.43;;;14.30;99.90;;;;;;5062364;28;20293;-78
2021/09/05 03:05:49;;;;;;;13.57;10.35;;;14.20;99.90;;;;;;5076399;28;20214;-79
2021/09/05 03:08:16;;;;;;;15.45;10.57;;;14.20;99.90;;;;;;5073129;28;20218;-79
2021/09/05 03:10:44;;;;;;;11.52;10.25;;;14.20;99.90;;;;;;5077699;28;20190;-78
2021/09/05 03:13:11;;;;;;;10.82;9.82;;;14.30;99.90;;;;;;5076758;28;20265;-79
2021/09/05 03:15:38;;;;;;;14.38;10.95;;;14.40;99.90;;;;;;5076866;28;20206;-78
2021/09/05 03:18:05;;;;;;;12.38;10.40;;;14.30;99.90;;;;;;5072441;28;20566;-78
2021/09/05 03:20:32;;;;;;;11.70;10.50;;;14.30;99.90;;;;;;5058762;28;20242;-78
2021/09/05 03:22:59;;;;;;;16.10;10.95;;;14.20;99.90;;;;;;5057697;28;20258;-79
2021/09/05 03:25:26;;;;;;;12.52;10.90;;;14.20;99.90;;;;;;5058383;28;20301;-78
2021/09/05 03:27:54;;;;;;;12.52;10.90;;;14.10;99.90;;;;;;5059663;28;20613;-78
2021/09/05 03:30:21;;;;;;;10.95;9.80;;;14.00;99.90;;;;;;5057476;28;20241;-77
2021/09/05 03:32:48;;;;;;;12.07;10.13;;;14.00;99.90;;;;;;5053781;28;20642;-77
2021/09/05 03:35:15;;;;;;;11.02;9.80;;;14.00;99.90;;;;;;5053804;28;20244;-77
2021/09/05 03:37:42;;;;;;;11.90;10.02;;;14.10;99.90;;;;;;5053622;28;20225;-77
2021/09/05 03:40:09;;;;;;;12.98;10.45;;;14.10;99.90;;;;;;5053551;28;20241;-77
2021/09/05 03:42:36;;;;;;;13.05;10.80;;;14.10;99.90;;;;;;5054030;28;20230;-78
2021/09/05 03:45:06;;;;;;;12.00;10.25;;;14.10;99.90;;;;;;5053954;28;20257;-79
2021/09/05 03:47:32;;;;;;;13.25;11.45;;;14.00;99.90;;;;;;5054286;28;20268;-78
2021/09/05 03:50:00;;;;;;;14.38;10.43;;;14.00;99.90;;;;;;5055637;28;20321;-78
2021/09/05 03:52:28;;;;;;;12.68;11.30;;;14.00;99.90;;;;;;5058162;28;20237;-77
2021/09/05 03:54:55;;;;;;;13.75;11.05;;;14.00;99.90;;;;;;5073964;28;20214;-78
2021/09/05 03:57:22;;;;;;;12.82;11.63;;;14.00;99.90;;;;;;5064966;28;20240;-78
2021/09/05 03:59:49;;;;;;;14.85;11.60;;;14.00;99.90;;;;;;5057602;28;20238;-78
2021/09/05 04:02:17;;;;;;;11.68;10.55;;;13.90;99.90;;;;;;5056135;28;20250;-77
2021/09/05 04:04:44;;;;;;;13.88;11.27;;;14.00;99.90;;;;;;5055536;28;20236;-77
2021/09/05 04:07:14;;;;;;;14.27;11.05;;;13.90;99.90;;;;;;5055622;28;20292;-78
2021/09/05 04:12:25;;;;;;;13.93;11.88;;;13.90;99.90;;;;;;5058550;28;20299;-77
2021/09/05 04:14:52;;;;;;;12.63;11.27;;;13.90;99.90;;;;;;5056090;28;20240;-77
2021/09/05 04:17:20;;;;;;;12.20;10.88;;;13.90;99.90;;;;;;5055106;28;20206;-78
2021/09/05 04:19:47;;;;;;;13.05;11.70;;;13.90;99.90;;;;;;5054554;28;20210;-78
2021/09/05 04:22:14;;;;;;;11.90;10.57;;;14.00;99.90;;;;;;5066561;28;20230;-78
2021/09/05 04:24:41;;;;;;;13.40;12.00;;;14.00;99.90;;;;;;5054401;28;20316;-78
2021/09/05 04:27:08;;;;;;;12.32;11.00;;;14.00;99.90;;;;;;5054679;28;20210;-78
2021/09/05 04:29:35;;;;;;;13.13;11.82;;;14.00;99.90;;;;;;5054230;28;20229;-78
2021/09/05 04:32:01;;;;;;;12.25;10.95;;;14.00;99.90;;;;;;5053574;28;20241;-77
2021/09/05 04:34:30;;;;;;;16.30;11.00;;;14.00;99.90;;;;;;5054842;28;20238;-78
2021/09/05 04:36:57;;;;;;;11.45;10.25;;;14.00;99.90;;;;;;5053964;28;20289;-78
2021/09/05 04:39:23;;;;;;;11.85;10.60;;;14.10;99.90;;;;;;5053907;28;20261;-77
2021/09/05 04:41:50;;;;;;;12.48;10.52;;;14.10;99.90;;;;;;5053308;28;20313;-78
2021/09/05 04:44:17;;;;;;;14.82;10.07;;;14.20;99.90;;;;;;5053881;28;20293;-77
2021/09/05 04:46:44;;;;;;;10.18;9.18;;;14.20;99.90;;;;;;5053580;28;20316;-78
2021/09/05 04:49:12;;;;;;;9.73;8.73;;;14.30;99.90;;;;;;5053831;28;20198;-77
2021/09/05 04:51:40;;;;;;;12.13;10.30;;;14.30;99.90;;;;;;5053600;28;20230;-78
2021/09/05 04:54:07;;;;;;;12.02;10.88;;;14.30;99.90;;;;;;5053528;28;20300;-77
2021/09/05 04:56:34;;;;;;;11.52;10.32;;;14.30;99.90;;;;;;5053626;28;20305;-78
2021/09/05 04:59:01;;;;;;;13.02;10.80;;;14.40;99.90;;;;;;5052756;28;20645;-78
2021/09/05 05:01:28;;;;;;;12.68;10.80;;;14.40;99.90;;;;;;5053643;28;20206;-78
2021/09/05 05:03:54;;;;;;;15.50;11.88;;;14.40;99.80;;;;;;5053635;28;20617;-78
2021/09/05 05:06:21;;;;;;;11.80;10.70;;;14.40;99.50;;;;;;5052851;28;20230;-78
2021/09/05 05:08:51;;;;;;;14.18;10.75;;;14.40;98.90;;;;;;5051779;28;20293;-78
2021/09/05 05:11:18;;;;;;;11.05;9.85;;;14.40;98.70;;;;;;5052574;28;20296;-78
2021/09/05 05:13:45;;;;;;;13.63;10.55;;;14.40;99.10;;;;;;5054153;28;20618;-77
2021/09/05 05:16:12;;;;;;;11.43;10.27;;;14.30;99.50;;;;;;5058057;28;20206;-77
2021/09/05 05:18:41;;;;;;;12.40;10.40;;;14.40;99.90;;;;;;5052157;28;20301;-77
2021/09/05 05:21:08;;;;;;;12.60;10.27;;;14.50;99.90;;;;;;5052184;28;20629;-77
2021/09/05 05:23:35;;;;;;;11.95;10.02;;;14.60;98.90;;;;;;5051839;28;20668;-77
2021/09/05 05:26:04;;;;;;;11.07;9.98;;;14.60;98.60;;;;;;5052007;28;20666;-77
2021/09/05 05:28:30;;;;;;;11.80;10.15;;;14.70;98.20;;;;;;5052586;28;20289;-77
2021/09/05 05:30:57;;;;;;;13.75;10.82;;;14.70;97.90;;;;;;5052562;28;20706;-78
2021/09/05 05:33:24;;;;;;;12.10;9.73;;;14.70;97.70;;;;;;5052052;28;20321;-78
2021/09/05 05:35:51;;;;;;;11.93;10.23;;;14.70;97.90;;;;;;5052369;28;20230;-78
2021/09/05 05:38:18;;;;;;;11.70;10.55;;;14.80;98.00;;;;;;5052310;28;20230;-78
2021/09/05 05:40:45;;;;;;;10.20;9.18;;;14.80;96.90;;;;;;5052078;28;20209;-77
2021/09/05 05:43:13;;;;;;;13.02;10.32;;;15.00;97.40;;;;;;5054598;28;20309;-78
2021/09/05 05:45:41;;;;;;;10.65;9.55;;;15.00;96.40;;;;;;5055965;28;20285;-77
2021/09/05 05:48:08;;;;;;;11.05;9.85;;;15.20;95.30;;;;;;5055548;28;20202;-77
2021/09/05 05:50:35;;;;;;;11.18;8.70;;;15.40;94.30;;;;;;5055339;28;20753;-77
2021/09/05 05:53:02;;;;;;;9.93;8.97;;;15.80;91.80;;;;;;5052610;28;20223;-78
2021/09/05 05:55:29;;;;;;;10.40;9.43;;;16.30;90.20;;;;;;5055069;28;20524;-77
2021/09/05 05:57:56;;;;;;;12.80;9.10;;;16.50;82.20;;;;;;5055108;28;20537;-77
2021/09/05 06:00:26;;;;;;;9.53;8.63;;;16.90;80.30;;;;;;5055068;28;20557;-78
2021/09/05 06:02:53;;;;;;;10.00;9.10;;;16.90;79.90;;;;;;5055843;28;20552;-78
2021/09/05 06:05:20;;;;;;;9.77;8.80;;;17.00;77.40;;;;;;5058085;28;20482;-78
2021/09/05 06:07:47;;;;;;;10.10;8.20;;;17.20;74.80;;;;;;5055084;28;20497;-78
2021/09/05 06:10:14;;;;;;;10.00;9.10;;;17.30;74.20;;;;;;5054947;28;20448;-78
2021/09/05 06:12:41;;;;;;;9.53;8.63;;;17.20;74.20;;;;;;5054613;28;20590;-77
2021/09/05 06:15:09;;;;;;;10.30;9.07;;;17.20;74.10;;;;;;5054947;28;20569;-78
2021/09/05 06:17:38;;;;;;;10.63;9.60;;;17.20;75.40;;;;;;5054562;28;20499;-77
2021/09/05 06:20:07;;;;;;;9.77;8.83;;;17.10;76.40;;;;;;5055059;28;20445;-77
2021/09/05 06:22:35;;;;;;;13.27;8.70;;;16.50;81.30;;;;;;5059690;28;20490;-77
2021/09/05 06:25:02;;;;;;;9.80;8.87;;;16.50;81.60;;;;;;5054589;28;20501;-77
2021/09/05 06:27:28;;;;;;;11.90;9.20;;;16.60;82.20;;;;;;5054467;28;20427;-78
2021/09/05 06:29:55;;;;;;;11.27;8.97;;;16.50;82.20;;;;;;5055028;28;20541;-79
2021/09/05 06:32:22;;;;;;;11.90;10.20;;;16.30;85.10;;;;;;5055108;28;20689;-76
2021/09/05 06:34:52;;;;;;;10.37;9.33;;;16.40;85.80;;;;;;5054359;28;20768;-78
2021/09/05 06:37:19;;;;;;;13.87;9.70;;;16.50;83.90;;;;;;5055803;28;20482;-78
2021/09/05 06:39:45;;;;;;;10.93;9.17;;;16.60;83.10;;;;;;5056503;28;20430;-78
2021/09/05 06:42:12;;;;;;;10.90;8.50;;;16.70;82.40;;;;;;5057086;28;20569;-76
2021/09/05 06:44:39;;;;;;;12.30;9.73;;;16.70;81.60;;;;;;5058017;28;20899;-78
2021/09/05 06:47:06;;;;;;;11.00;9.40;;;16.80;81.10;;;;;;5056024;28;20520;-77
2021/09/05 06:49:33;;;;;;;9.97;8.97;;;16.80;82.50;;;;;;5056983;28;20534;-77
2021/09/05 06:52:03;;;;;;;12.47;10.10;;;16.80;81.90;;;;;;5065990;28;20569;-76
2021/09/05 06:54:30;;;;;;;10.17;9.10;;;16.70;82.40;;;;;;5056861;28;20582;-76
2021/09/05 06:56:57;;;;;;;10.70;9.20;;;16.90;82.60;;;;;;5057813;28;20463;-77
2021/09/05 06:59:24;;;;;;;11.47;10.27;;;16.90;81.80;;;;;;5057077;28;20489;-76
2021/09/05 07:01:51;;;;;;;11.33;9.53;;;17.00;80.40;;;;;;5058972;28;20446;-76
2021/09/05 07:04:18;;;;;;;10.03;9.03;;;17.20;79.60;;;;;;5063068;28;20424;-77
2021/09/05 07:06:46;;;;;;;9.83;8.83;;;17.30;78.30;;;;;;5059561;28;20549;-76
2021/09/05 07:09:14;;;;;;;12.43;9.40;;;17.50;76.00;;;;;;5057026;28;20437;-76
2021/09/05 07:11:41;;;;;;;10.03;9.13;;;17.70;74.60;;;;;;5056712;28;20482;-77
2021/09/05 07:14:08;;;;;;;9.70;8.63;;;17.60;74.60;;;;;;5056857;28;20523;-76
2021/09/05 07:16:34;;;;;;;9.30;8.40;;;17.90;73.70;;;;;;5056385;28;20553;-79
2021/09/05 07:19:01;;;;;;;9.33;8.43;;;18.10;69.30;;;;;;5070876;28;21021;-77
2021/09/05 07:21:28;;;;;;;9.70;8.80;;;18.10;69.10;;;;;;5057866;28;20462;-77
2021/09/05 07:23:55;;;;;;;10.03;7.40;;;18.30;68.30;;;;;;5068100;28;20464;-75
2021/09/05 07:26:23;;;;;;;10.37;7.97;;;18.10;66.00;;;;;;5059833;28;20550;-76
2021/09/05 07:28:50;;;;;;;8.87;7.97;;;18.00;67.50;;;;;;5056786;28;20955;-77
2021/09/05 07:31:17;;;;;;;10.60;8.23;;;17.90;68.40;;;;;;5053150;28;20549;-75
2021/09/05 07:33:44;;;;;;;9.10;8.20;;;18.20;67.20;;;;;;5057057;28;20521;-77
2021/09/05 07:36:11;;;;;;;9.23;8.37;;;18.50;66.40;;;;;;5062787;28;20426;-77
2021/09/05 07:38:39;;;;;;;8.67;7.80;;;18.80;63.70;;;;;;5053064;28;20865;-78
2021/09/05 07:41:06;;;;;;;8.73;7.83;;;18.90;62.60;;;;;;5060608;28;20464;-77
2021/09/05 07:43:34;;;;;;;8.80;7.87;;;19.00;60.90;;;;;;5055527;28;20455;-77
2021/09/05 07:46:01;;;;;;;8.40;7.60;;;19.10;60.30;;;;;;5070969;28;20506;-78
2021/09/05 07:48:28;;;;;;;8.43;7.60;;;19.10;60.20;;;;;;5057433;28;20935;-77
2021/09/05 07:50:55;;;;;;;10.07;8.10;;;19.20;60.80;;;;;;5058835;28;20455;-76
2021/09/05 07:53:22;;;;;;;8.13;7.40;;;19.20;59.60;;;;;;5056019;28;20535;-77
2021/09/05 07:55:49;;;;;;;8.80;8.00;;;19.10;59.60;;;;;;5073197;28;20450;-76
2021/09/05 07:58:16;;;;;;;8.10;7.37;;;19.00;58.80;;;;;;5074141;28;20546;-77
2021/09/05 08:00:44;;;;;;;7.90;6.73;;;19.10;57.80;;;;;;5067215;28;20543;-77
2021/09/05 08:03:11;;;;;;;7.53;6.73;;;19.60;57.50;;;;;;5053426;28;20451;-76
2021/09/05 08:05:38;;;;;;;7.07;6.30;;;20.00;56.30;;;;;;5051818;28;20811;-76
2021/09/05 08:08:05;;;;;;;7.90;7.13;;;20.40;54.60;;;;;;5051152;28;20507;-76
2021/09/05 08:10:32;;;;;;;7.20;6.50;;;20.60;52.70;;;;;;5051807;28;20492;-76
2021/09/05 08:12:59;;;;;;;6.77;6.07;;;20.60;52.30;;;;;;5050948;28;20496;-76
2021/09/05 08:15:26;;;;;;;8.30;7.50;;;20.90;51.30;;;;;;5050869;28;20821;-76
2021/09/05 08:17:54;;;;;;;9.13;6.60;;;21.30;50.80;;;;;;5051683;28;20493;-76
2021/09/05 08:20:22;;;;;;;9.27;7.00;;;21.60;50.40;;;;;;5058183;28;20451;-75
2021/09/05 08:22:48;;;;;;;9.40;7.83;;;21.60;50.40;;;;;;5059473;28;20447;-75
2021/09/05 08:25:16;;;;;;;8.73;7.10;;;21.10;52.80;;;;;;5059831;28;20430;-75
2021/09/05 08:27:43;;;;;;;9.60;8.30;;;21.20;52.60;;;;;;5053615;28;20572;-75
2021/09/05 08:30:11;;;;;;;8.87;7.97;;;20.40;54.50;;;;;;5053137;28;20473;-75
2021/09/05 08:32:38;;;;;;;8.60;7.50;;;19.90;56.40;;;;;;5053128;28;20459;-75
2021/09/05 08:35:06;;;;;;;9.80;8.27;;;20.10;56.90;;;;;;5053827;28;20487;-74
2021/09/05 08:37:33;;;;;;;8.40;7.50;;;20.30;55.80;;;;;;5052643;28;20424;-75
2021/09/05 08:40:00;;;;;;;7.63;6.93;;;20.70;54.70;;;;;;5052189;28;20953;-75
2021/09/05 08:42:32;;;;;;;8.40;7.50;;;20.80;54.60;;;;;;5052186;28;20478;-76
2021/09/05 08:44:59;;;;;;;10.00;8.90;;;20.90;54.00;;;;;;5052391;28;20517;-75
2021/09/05 08:47:30;;;;;;;8.90;8.00;;;21.00;53.30;;;;;;5066917;28;20550;-72
2021/09/05 08:49:57;;;;;;;8.87;7.97;;;20.90;53.30;;;;;;5067966;28;20459;-72
2021/09/05 08:52:26;;;;;;;9.57;8.30;;;20.80;53.90;;;;;;5070191;28;20457;-72
2021/09/05 08:54:53;;;;;;;11.83;8.20;;;20.70;54.40;;;;;;5071962;28;20457;-72
2021/09/05 08:57:20;;;;;;;8.20;7.13;;;20.80;53.00;;;;;;5062934;28;20456;-72
2021/09/05 08:59:46;;;;;;;7.83;6.20;;;21.10;52.00;;;;;;5055197;28;20520;-73
2021/09/05 09:02:13;;;;;;;11.43;8.90;;;21.40;51.30;;;;;;5054178;28;20476;-73
2021/09/05 09:04:42;;;;;;;8.17;7.13;;;21.20;52.10;;;;;;5053432;28;20536;-73
2021/09/05 09:07:10;;;;;;;8.43;7.43;;;21.40;50.20;;;;;;5052532;28;21000;-73
2021/09/05 09:09:43;;;;;;;8.20;7.37;;;21.50;50.30;;;;;;5052185;28;20434;-72
2021/09/05 09:12:10;;;;;;;9.10;8.27;;;21.60;50.40;;;;;;5051859;28;20871;-72
2021/09/05 09:14:42;;;;;;;8.20;7.47;;;21.10;51.60;;;;;;5052418;28;20463;-73
2021/09/05 09:17:10;;;;;;;9.17;8.27;;;21.00;53.20;;;;;;5034553;28;20450;-73
2021/09/05 09:19:37;;;;;;;9.10;8.20;;;21.10;53.20;;;;;;5047010;28;20494;-73
2021/09/05 09:22:06;;;;;;;8.03;7.23;;;21.20;52.90;;;;;;5059261;28;20540;-73
2021/09/05 09:24:42;;;;;;;7.77;7.07;;;21.50;52.70;;;;;;5053639;28;20488;-73
2021/09/05 09:27:11;;;;;;;8.30;7.50;;;21.70;52.30;;;;;;5054201;28;20493;-74
2021/09/05 09:29:39;;;;;;;10.47;8.00;;;21.80;52.10;;;;;;5070153;28;20429;-74
2021/09/05 09:32:08;;;;;;;8.57;7.60;;;22.00;51.30;;;;;;5055835;28;20581;-74
2021/09/05 09:34:40;;;;;;;9.43;7.53;;;21.80;52.70;;;;;;5056803;28;20515;-73
2021/09/05 09:37:14;;;;;;;8.73;7.93;;;21.70;52.80;;;;;;5058831;28;20521;-73
2021/09/05 09:39:46;;;;;;;7.87;7.07;;;21.80;53.00;;;;;;5069141;28;20442;-73
2021/09/05 09:42:34;;;;;;;8.97;8.07;;;22.00;52.30;;;;;;5058639;28;20477;-74
2021/09/05 09:45:02;;;;;;;8.37;7.57;;;21.80;53.40;;;;;;5055736;28;20509;-73
2021/09/05 09:47:38;;;;;;;10.30;7.13;;;22.10;52.90;;;;;;5057007;28;20564;-73
2021/09/05 09:50:06;;;;;;;12.03;7.77;;;22.40;51.30;;;;;;5055420;28;20473;-75
2021/09/05 09:52:34;;;;;;;7.13;6.40;;;22.80;51.50;;;;;;5056032;28;20482;-74
2021/09/05 09:55:04;;;;;;;7.87;7.07;;;23.00;51.70;;;;;;5071718;28;20459;-74
2021/09/05 09:57:31;;;;;;;8.30;7.40;;;22.90;50.60;;;;;;5065118;28;20426;-73
2021/09/05 09:59:58;;;;;;;8.43;7.47;;;23.10;49.70;;;;;;5077991;28;20481;-74
2021/09/05 10:02:28;;;;;;;8.10;7.30;;;23.10;50.10;;;;;;5081601;28;20466;-75
2021/09/05 10:04:57;;;;;;;11.87;8.20;;;23.30;49.80;;;;;;5047983;28;20428;-74
2021/09/05 10:07:24;;;;;;;9.60;7.80;;;23.50;49.30;;;;;;5078654;28;20866;-74
2021/09/05 10:09:52;;;;;;;8.10;7.30;;;23.50;48.80;;;;;;5060359;28;20837;-74
2021/09/05 10:12:21;;;;;;;10.57;8.13;;;23.30;49.60;;;;;;5055659;28;20554;-74
2021/09/05 10:14:52;;;;;;;8.33;7.53;;;23.30;49.60;;;;;;5055285;28;20525;-73
2021/09/05 10:17:20;;;;;;;7.90;7.10;;;23.30;50.00;;;;;;5054937;28;20431;-73
2021/09/05 10:19:48;;;;;;;8.17;7.40;;;23.30;49.80;;;;;;5055106;28;20579;-73
2021/09/05 10:22:18;;;;;;;11.40;7.30;;;23.70;48.60;;;;;;5055139;28;20500;-73
2021/09/05 10:24:47;;;;;;;8.13;7.40;;;23.80;48.40;;;;;;5054119;28;20408;-75
2021/09/05 10:27:15;;;;;;;7.97;7.17;;;24.00;48.10;;;;;;5051688;28;20577;-72
2021/09/05 10:30:11;;;;;;;7.77;6.97;;;24.00;47.60;;;;;;5052956;28;20461;-73
2021/09/05 10:32:44;;;;;;;7.70;7.00;;;24.20;47.20;;;;;;5054486;28;20929;-74
2021/09/05 10:35:38;;;;;;;9.70;6.83;;;24.30;47.30;;;;;;5050414;28;20450;-73
2021/09/05 10:38:25;;;;;;;7.53;6.80;;;24.40;46.50;;;;;;5040032;28;20455;-76
2021/09/05 10:40:55;;;;;;;11.30;6.90;;;24.60;46.30;;;;;;5042537;28;20457;-74
2021/09/05 10:43:23;;;;;;;9.30;6.70;;;24.80;45.60;;;;;;5048590;28;20507;-74
2021/09/05 10:45:55;;;;;;;8.40;6.90;;;25.00;45.40;;;;;;5045724;28;20467;-74
2021/09/05 10:48:36;;;;;;;7.67;6.90;;;24.90;43.40;;;;;;5053240;28;20484;-74
2021/09/05 10:51:07;;;;;;;6.80;6.20;;;24.90;44.10;;;;;;5052632;28;20464;-74
2021/09/05 10:53:37;;;;;;;10.57;7.30;;;24.90;43.40;;;;;;5053161;28;20454;-74
2021/09/05 10:56:12;;;;;;;6.73;6.00;;;24.80;43.30;;;;;;5044939;28;20769;-74
2021/09/05 10:58:40;;;;;;;7.60;6.90;;;24.80;43.30;;;;;;5054077;28;20454;-74
2021/09/05 11:01:30;;;;;;;7.10;6.40;;;24.90;43.40;;;;;;5053370;28;20849;-73
2021/09/05 11:04:40;;;;;;;6.80;6.20;;;25.30;43.70;;;;;;5053713;28;20515;-74
2021/09/05 11:07:11;;;;;;;6.40;5.80;;;25.50;42.20;;;;;;5047655;28;20550;-74
2021/09/05 11:09:43;;;;;;;6.30;5.77;;;25.50;41.70;;;;;;5052866;28;20536;-74
2021/09/05 11:12:12;;;;;;;6.83;6.23;;;25.10;43.50;;;;;;5053123;28;20835;-73
2021/09/05 11:15:01;;;;;;;6.17;5.57;;;25.10;43.50;;;;;;5053664;28;20434;-72
2021/09/05 11:17:31;;;;;;;6.77;6.17;;;25.00;43.50;;;;;;5050859;28;20957;-74
2021/09/05 11:20:00;;;;;;;7.93;6.17;;;25.30;41.80;;;;;;5052992;28;20969;-74
2021/09/05 11:22:32;;;;;;;6.70;6.07;;;25.50;41.10;;;;;;5053013;28;20538;-75
2021/09/05 11:25:14;;;;;;;7.00;6.00;;;25.70;39.60;;;;;;5053605;28;20516;-75
2021/09/05 11:27:48;;;;;;;7.00;6.20;;;25.80;39.30;;;;;;5053343;28;20954;-74
2021/09/05 11:30:15;;;;;;;6.03;5.37;;;26.00;39.40;;;;;;5053033;28;20468;-74
2021/09/05 11:32:44;;;;;;;6.77;5.87;;;25.80;37.50;;;;;;5053030;28;20564;-74
2021/09/05 11:35:12;;;;;;;6.83;5.60;;;25.80;39.00;;;;;;5052804;28;21000;-74
2021/09/05 11:37:42;;;;;;;6.47;5.63;;;25.70;37.40;;;;;;5046225;28;20713;-74
2021/09/05 11:40:10;;;;;;;5.67;5.17;;;25.60;35.90;;;;;;5055318;28;20423;-74
2021/09/05 11:42:42;;;;;;;5.80;4.90;;;25.90;35.00;;;;;;5053699;28;20448;-74
2021/09/05 11:45:10;;;;;;;5.90;5.30;;;25.90;33.80;;;;;;5052899;28;20523;-75
2021/09/05 11:47:38;;;;;;;5.67;5.03;;;25.90;33.80;;;;;;5052720;28;20456;-74
2021/09/05 11:50:08;;;;;;;6.10;5.60;;;25.60;35.70;;;;;;5047064;28;20863;-74
2021/09/05 11:52:36;;;;;;;6.00;5.40;;;25.80;35.60;;;;;;5050019;28;21002;-75
2021/09/05 11:55:07;;;;;;;5.60;5.10;;;26.00;35.80;;;;;;5050600;28;20460;-74
2021/09/05 11:57:35;;;;;;;5.80;5.20;;;26.20;34.00;;;;;;5043617;28;20450;-73
2021/09/05 12:00:05;;;;;;;5.53;5.03;;;26.00;33.80;;;;;;5048642;28;20532;-74
2021/09/05 12:02:34;;;;;;;6.50;5.37;;;26.10;33.90;;;;;;5052480;28;20504;-74
2021/09/05 12:05:03;;;;;;;13.93;5.30;;;26.50;34.30;;;;;;5052867;28;20531;-73
2021/09/05 12:07:32;;;;;;;7.80;5.30;;;26.70;30.50;;;;;;5052670;28;20506;-74
2021/09/05 12:10:08;;;;;;;5.17;4.60;;;26.40;31.80;;;;;;5052298;28;20427;-74
2021/09/05 12:12:35;;;;;;;6.13;5.63;;;26.10;33.20;;;;;;5053251;28;20532;-73
2021/09/05 12:15:14;;;;;;;6.73;5.73;;;26.20;34.20;;;;;;5049182;28;20801;-73
2021/09/05 12:17:44;;;;;;;5.73;4.40;;;26.30;32.00;;;;;;5052155;28;20526;-73
2021/09/05 12:20:13;;;;;;;5.50;5.00;;;26.50;32.20;;;;;;5067272;28;20435;-73
2021/09/05 12:22:47;;;;;;;5.50;5.00;;;26.80;31.60;;;;;;5072822;28;21003;-74
2021/09/05 12:25:19;;;;;;;5.57;5.07;;;26.90;30.40;;;;;;5048358;28;20487;-74
2021/09/05 12:28:01;;;;;;;4.97;4.47;;;26.60;29.30;;;;;;5061763;28;20490;-74
2021/09/05 12:30:30;;;;;;;5.70;5.07;;;26.80;29.40;;;;;;5053539;28;20426;-73
2021/09/05 12:33:11;;;;;;;5.03;4.63;;;26.60;29.30;;;;;;5055005;28;20481;-74
2021/09/05 12:35:40;;;;;;;6.77;5.00;;;26.60;28.30;;;;;;5063089;28;20448;-73
2021/09/05 12:38:11;;;;;;;4.97;4.57;;;26.60;29.30;;;;;;5059615;28;20464;-73
2021/09/05 12:40:41;;;;;;;5.23;4.73;;;26.50;29.30;;;;;;5053069;28;20986;-73
2021/09/05 12:43:09;;;;;;;7.37;4.93;;;26.50;29.20;;;;;;5047404;28;20550;-74
2021/09/05 12:45:36;;;;;;;6.47;4.80;;;26.50;30.00;;;;;;5056328;28;20451;-74
2021/09/05 12:48:17;;;;;;;5.90;4.80;;;26.80;29.80;;;;;;5060154;28;20509;-74